sensor_id;sensor_type;location;lat;lon;timestamp;temperature;humidity
14210;DHT22;7188;56.070;12.698;2023-05-15T00:00:08;11.90;1.00
14210;DHT22;7188;56.070;12.698;2023-05-15T00:02:35;11.90;1.00
14210;DHT22;7188;56.070;12.698;2023-05-15T00:05:03;11.90;1.00
14210;DHT22;7188;56.070;12.698;2023-05-15T00:07:29;11.80;1.00
14210;DHT22;7188;56.070;12.698;2023-05-15T00:09:55;11.80;1.00
14210;DHT22;7188;56.070;12.698;2023-05-15T00:12:21;11.90;1.00
14210;DHT22;7188;56.070;12.698;2023-05-15T00:14:46;11.90;1.00
14210;DHT22;7188;56.070;12.698;2023-05-15T00:17:12;11.90;1.00
14210;DHT22;7188;56.070;12.698;2023-05-15T00:19:38;11.80;1.00
14210;DHT22;7188;56.070;12.698;2023-05-15T00:22:03;11.80;1.00
14210;DHT22;7188;56.070;12.698;2023-05-15T00:24:29;11.90;1.00
14210;DHT22;7188;56.070;12.698;2023-05-15T00:30:17;11.90;1.00
14210;DHT22;7188;56.070;12.698;2023-05-15T00:32:42;12.00;1.00
14210;DHT22;7188;56.070;12.698;2023-05-15T00:35:08;12.00;1.00
14210;DHT22;7188;56.070;12.698;2023-05-15T00:37:34;12.00;1.00
14210;DHT22;7188;56.070;12.698;2023-05-15T00:39:59;11.90;1.00
14210;DHT22;7188;56.070;12.698;2023-05-15T00:42:28;11.90;1.00
14210;DHT22;7188;56.070;12.698;2023-05-15T00:44:55;11.80;1.00
14210;DHT22;7188;56.070;12.698;2023-05-15T00:47:21;11.80;1.00
14210;DHT22;7188;56.070;12.698;2023-05-15T00:49:48;11.80;1.00
14210;DHT22;7188;56.070;12.698;2023-05-15T00:52:37;11.70;1.00
14210;DHT22;7188;56.070;12.698;2023-05-15T00:55:03;11.70;1.00
14210;DHT22;7188;56.070;12.698;2023-05-15T00:57:30;11.60;1.00
14210;DHT22;7188;56.070;12.698;2023-05-15T00:59:56;11.50;1.00
14210;DHT22;7188;56.070;12.698;2023-05-15T01:02:23;11.50;1.00
14210;DHT22;7188;56.070;12.698;2023-05-15T01:04:49;11.40;1.00
14210;DHT22;7188;56.070;12.698;2023-05-15T01:07:15;11.40;1.00
14210;DHT22;7188;56.070;12.698;2023-05-15T01:09:41;11.30;1.00
14210;DHT22;7188;56.070;12.698;2023-05-15T01:12:10;11.30;1.00
14210;DHT22;7188;56.070;12.698;2023-05-15T01:14:39;11.20;1.00
14210;DHT22;7188;56.070;12.698;2023-05-15T01:17:05;11.10;1.00
14210;DHT22;7188;56.070;12.698;2023-05-15T01:19:30;11.10;1.00
14210;DHT22;7188;56.070;12.698;2023-05-15T01:27:49;10.80;1.00
14210;DHT22;7188;56.070;12.698;2023-05-15T01:30:33;10.70;1.00
14210;DHT22;7188;56.070;12.698;2023-05-15T01:41:41;10.80;1.00
14210;DHT22;7188;56.070;12.698;2023-05-15T01:44:18;10.70;1.00
14210;DHT22;7188;56.070;12.698;2023-05-15T01:46:50;10.70;1.00
14210;DHT22;7188;56.070;12.698;2023-05-15T01:49:17;10.80;1.00
14210;DHT22;7188;56.070;12.698;2023-05-15T01:51:46;10.70;1.00
14210;DHT22;7188;56.070;12.698;2023-05-15T01:54:14;10.70;1.00
14210;DHT22;7188;56.070;12.698;2023-05-15T01:56:41;10.70;1.00
14210;DHT22;7188;56.070;12.698;2023-05-15T01:59:12;10.70;1.00
14210;DHT22;7188;56.070;12.698;2023-05-15T02:01:38;10.70;1.00
14210;DHT22;7188;56.070;12.698;2023-05-15T02:04:05;10.70;1.00
14210;DHT22;7188;56.070;12.698;2023-05-15T02:06:31;10.70;1.00
14210;DHT22;7188;56.070;12.698;2023-05-15T02:09:16;10.70;1.00
14210;DHT22;7188;56.070;12.698;2023-05-15T02:11:42;10.70;1.00
14210;DHT22;7188;56.070;12.698;2023-05-15T02:14:10;10.70;1.00
14210;DHT22;7188;56.070;12.698;2023-05-15T02:16:36;10.70;1.00
14210;DHT22;7188;56.070;12.698;2023-05-15T02:19:03;10.70;1.00
14210;DHT22;7188;56.070;12.698;2023-05-15T02:21:28;10.70;1.00
14210;DHT22;7188;56.070;12.698;2023-05-15T02:23:54;10.70;1.00
14210;DHT22;7188;56.070;12.698;2023-05-15T02:29:18;10.70;1.00
14210;DHT22;7188;56.070;12.698;2023-05-15T02:37:31;10.60;1.00
14210;DHT22;7188;56.070;12.698;2023-05-15T02:39:57;10.50;10.90
14210;DHT22;7188;56.070;12.698;2023-05-15T02:42:32;10.50;24.80
14210;DHT22;7188;56.070;12.698;2023-05-15T02:44:59;10.40;46.30
14210;DHT22;7188;56.070;12.698;2023-05-15T02:47:25;10.30;72.70
14210;DHT22;7188;56.070;12.698;2023-05-15T02:49:52;10.30;98.10
14210;DHT22;7188;56.070;12.698;2023-05-15T02:52:17;10.30;99.90
14210;DHT22;7188;56.070;12.698;2023-05-15T02:54:43;10.30;99.90
14210;DHT22;7188;56.070;12.698;2023-05-15T02:57:09;10.30;99.90
14210;DHT22;7188;56.070;12.698;2023-05-15T02:59:34;10.30;99.90
14210;DHT22;7188;56.070;12.698;2023-05-15T03:02:00;10.20;99.90
14210;DHT22;7188;56.070;12.698;2023-05-15T03:04:28;10.20;99.90
14210;DHT22;7188;56.070;12.698;2023-05-15T03:06:53;10.10;99.90
14210;DHT22;7188;56.070;12.698;2023-05-15T03:09:19;10.10;99.90
14210;DHT22;7188;56.070;12.698;2023-05-15T03:11:44;10.10;99.90
14210;DHT22;7188;56.070;12.698;2023-05-15T03:14:10;10.10;99.90
14210;DHT22;7188;56.070;12.698;2023-05-15T03:16:36;10.10;99.90
14210;DHT22;7188;56.070;12.698;2023-05-15T03:19:03;10.10;99.90
14210;DHT22;7188;56.070;12.698;2023-05-15T03:21:29;10.10;99.90
14210;DHT22;7188;56.070;12.698;2023-05-15T03:23:54;10.20;99.90
14210;DHT22;7188;56.070;12.698;2023-05-15T03:26:20;10.20;99.90
14210;DHT22;7188;56.070;12.698;2023-05-15T03:28:46;10.20;99.90
14210;DHT22;7188;56.070;12.698;2023-05-15T03:31:11;10.20;99.90
14210;DHT22;7188;56.070;12.698;2023-05-15T03:33:39;10.20;99.90
14210;DHT22;7188;56.070;12.698;2023-05-15T03:36:05;10.30;99.90
14210;DHT22;7188;56.070;12.698;2023-05-15T03:38:31;10.30;99.90
14210;DHT22;7188;56.070;12.698;2023-05-15T03:40:56;10.30;99.90
14210;DHT22;7188;56.070;12.698;2023-05-15T03:43:22;10.30;99.90
14210;DHT22;7188;56.070;12.698;2023-05-15T03:45:48;10.40;99.90
14210;DHT22;7188;56.070;12.698;2023-05-15T03:48:14;10.40;99.90
14210;DHT22;7188;56.070;12.698;2023-05-15T03:50:40;10.50;99.90
14210;DHT22;7188;56.070;12.698;2023-05-15T03:53:05;10.60;99.90
14210;DHT22;7188;56.070;12.698;2023-05-15T03:55:31;10.70;99.90
14210;DHT22;7188;56.070;12.698;2023-05-15T03:57:57;10.90;99.90
14210;DHT22;7188;56.070;12.698;2023-05-15T04:00:26;11.20;99.90
14210;DHT22;7188;56.070;12.698;2023-05-15T04:02:52;11.50;99.90
14210;DHT22;7188;56.070;12.698;2023-05-15T04:05:17;11.70;39.70
14210;DHT22;7188;56.070;12.698;2023-05-15T04:07:44;11.70;10.00
14210;DHT22;7188;56.070;12.698;2023-05-15T04:10:10;11.90;1.00
14210;DHT22;7188;56.070;12.698;2023-05-15T04:12:35;12.00;1.00
14210;DHT22;7188;56.070;12.698;2023-05-15T04:15:21;12.10;1.00
14210;DHT22;7188;56.070;12.698;2023-05-15T04:17:50;12.10;1.00
14210;DHT22;7188;56.070;12.698;2023-05-15T04:20:19;12.20;1.00
14210;DHT22;7188;56.070;12.698;2023-05-15T04:22:45;12.20;1.00
14210;DHT22;7188;56.070;12.698;2023-05-15T04:25:11;12.20;1.00
14210;DHT22;7188;56.070;12.698;2023-05-15T04:27:39;12.20;1.00
14210;DHT22;7188;56.070;12.698;2023-05-15T04:30:06;12.20;1.00
14210;DHT22;7188;56.070;12.698;2023-05-15T04:32:33;12.40;1.00
14210;DHT22;7188;56.070;12.698;2023-05-15T04:35:00;12.60;1.00
14210;DHT22;7188;56.070;12.698;2023-05-15T04:37:27;12.60;1.00
14210;DHT22;7188;56.070;12.698;2023-05-15T04:39:53;12.70;1.00
14210;DHT22;7188;56.070;12.698;2023-05-15T04:42:18;12.80;1.00
14210;DHT22;7188;56.070;12.698;2023-05-15T04:44:44;12.80;1.00
14210;DHT22;7188;56.070;12.698;2023-05-15T04:47:10;12.80;1.00
14210;DHT22;7188;56.070;12.698;2023-05-15T04:49:40;13.00;1.00
14210;DHT22;7188;56.070;12.698;2023-05-15T04:52:06;13.10;1.00
14210;DHT22;7188;56.070;12.698;2023-05-15T04:54:32;13.20;1.00
14210;DHT22;7188;56.070;12.698;2023-05-15T04:56:58;13.20;1.00
14210;DHT22;7188;56.070;12.698;2023-05-15T04:59:23;13.30;1.00
14210;DHT22;7188;56.070;12.698;2023-05-15T05:01:50;13.40;1.00
14210;DHT22;7188;56.070;12.698;2023-05-15T05:04:16;13.40;1.00
14210;DHT22;7188;56.070;12.698;2023-05-15T05:06:46;13.50;1.00
14210;DHT22;7188;56.070;12.698;2023-05-15T05:09:12;13.70;1.00
14210;DHT22;7188;56.070;12.698;2023-05-15T05:11:39;13.90;1.00
14210;DHT22;7188;56.070;12.698;2023-05-15T05:14:11;14.10;1.00
14210;DHT22;7188;56.070;12.698;2023-05-15T05:16:37;14.50;1.00
14210;DHT22;7188;56.070;12.698;2023-05-15T05:19:04;14.70;1.00
14210;DHT22;7188;56.070;12.698;2023-05-15T05:21:30;14.90;1.00
14210;DHT22;7188;56.070;12.698;2023-05-15T05:23:56;14.90;1.00
14210;DHT22;7188;56.070;12.698;2023-05-15T05:26:22;15.00;1.00
14210;DHT22;7188;56.070;12.698;2023-05-15T05:28:48;15.10;1.00
14210;DHT22;7188;56.070;12.698;2023-05-15T05:31:13;15.30;1.00
14210;DHT22;7188;56.070;12.698;2023-05-15T05:33:39;15.40;1.00
14210;DHT22;7188;56.070;12.698;2023-05-15T05:36:05;15.40;1.00
14210;DHT22;7188;56.070;12.698;2023-05-15T05:38:31;15.30;1.00
14210;DHT22;7188;56.070;12.698;2023-05-15T05:40:57;15.40;1.00
14210;DHT22;7188;56.070;12.698;2023-05-15T05:43:24;15.50;1.00
14210;DHT22;7188;56.070;12.698;2023-05-15T05:45:50;15.40;1.00
14210;DHT22;7188;56.070;12.698;2023-05-15T05:48:16;15.40;1.00
14210;DHT22;7188;56.070;12.698;2023-05-15T05:50:42;15.30;1.00
14210;DHT22;7188;56.070;12.698;2023-05-15T05:53:07;15.20;1.00
14210;DHT22;7188;56.070;12.698;2023-05-15T05:55:33;15.20;1.00
14210;DHT22;7188;56.070;12.698;2023-05-15T05:57:59;15.20;1.00
14210;DHT22;7188;56.070;12.698;2023-05-15T06:00:25;15.40;1.00
14210;DHT22;7188;56.070;12.698;2023-05-15T06:02:56;15.50;1.00
14210;DHT22;7188;56.070;12.698;2023-05-15T06:05:23;15.80;1.00
14210;DHT22;7188;56.070;12.698;2023-05-15T06:07:50;16.10;1.00
14210;DHT22;7188;56.070;12.698;2023-05-15T06:10:15;16.30;1.00
14210;DHT22;7188;56.070;12.698;2023-05-15T06:12:41;16.50;1.00
14210;DHT22;7188;56.070;12.698;2023-05-15T06:15:07;16.70;1.00
14210;DHT22;7188;56.070;12.698;2023-05-15T06:17:32;16.80;1.00
14210;DHT22;7188;56.070;12.698;2023-05-15T06:19:58;17.00;1.00
14210;DHT22;7188;56.070;12.698;2023-05-15T06:22:24;17.10;1.00
14210;DHT22;7188;56.070;12.698;2023-05-15T06:24:49;17.30;1.00
14210;DHT22;7188;56.070;12.698;2023-05-15T06:27:15;17.40;1.00
14210;DHT22;7188;56.070;12.698;2023-05-15T06:29:41;17.50;1.00
14210;DHT22;7188;56.070;12.698;2023-05-15T06:32:06;17.70;1.00
14210;DHT22;7188;56.070;12.698;2023-05-15T06:34:32;17.90;1.00
14210;DHT22;7188;56.070;12.698;2023-05-15T06:36:58;18.20;1.00
14210;DHT22;7188;56.070;12.698;2023-05-15T06:39:24;18.40;99.90
14210;DHT22;7188;56.070;12.698;2023-05-15T06:41:50;18.50;99.90
14210;DHT22;7188;56.070;12.698;2023-05-15T06:44:18;18.70;99.90
14210;DHT22;7188;56.070;12.698;2023-05-15T06:46:44;18.80;99.90
14210;DHT22;7188;56.070;12.698;2023-05-15T06:49:09;19.00;99.90
14210;DHT22;7188;56.070;12.698;2023-05-15T06:51:35;19.20;99.90
14210;DHT22;7188;56.070;12.698;2023-05-15T06:54:01;19.40;99.90
14210;DHT22;7188;56.070;12.698;2023-05-15T06:56:27;19.60;99.90
14210;DHT22;7188;56.070;12.698;2023-05-15T06:58:53;19.60;99.90
14210;DHT22;7188;56.070;12.698;2023-05-15T07:01:18;19.70;99.90
14210;DHT22;7188;56.070;12.698;2023-05-15T07:03:44;20.00;99.90
14210;DHT22;7188;56.070;12.698;2023-05-15T07:06:10;20.00;99.90
14210;DHT22;7188;56.070;12.698;2023-05-15T07:08:35;20.30;99.90
14210;DHT22;7188;56.070;12.698;2023-05-15T07:11:01;20.40;99.90
14210;DHT22;7188;56.070;12.698;2023-05-15T07:13:27;20.50;99.90
14210;DHT22;7188;56.070;12.698;2023-05-15T07:15:52;20.30;99.90
14210;DHT22;7188;56.070;12.698;2023-05-15T07:18:18;20.40;99.90
14210;DHT22;7188;56.070;12.698;2023-05-15T07:20:44;20.50;99.90
14210;DHT22;7188;56.070;12.698;2023-05-15T07:23:10;20.60;99.90
14210;DHT22;7188;56.070;12.698;2023-05-15T07:25:35;20.70;99.90
14210;DHT22;7188;56.070;12.698;2023-05-15T07:28:01;20.90;99.90
14210;DHT22;7188;56.070;12.698;2023-05-15T07:30:27;21.00;99.90
14210;DHT22;7188;56.070;12.698;2023-05-15T07:32:52;21.00;99.90
14210;DHT22;7188;56.070;12.698;2023-05-15T07:35:18;21.00;99.90
14210;DHT22;7188;56.070;12.698;2023-05-15T07:37:44;21.10;99.90
14210;DHT22;7188;56.070;12.698;2023-05-15T07:40:11;21.10;99.90
14210;DHT22;7188;56.070;12.698;2023-05-15T07:42:36;21.30;99.90
14210;DHT22;7188;56.070;12.698;2023-05-15T07:45:05;21.40;99.90
14210;DHT22;7188;56.070;12.698;2023-05-15T07:47:31;21.60;99.90
14210;DHT22;7188;56.070;12.698;2023-05-15T07:49:57;21.60;99.90
14210;DHT22;7188;56.070;12.698;2023-05-15T07:52:22;21.70;99.90
14210;DHT22;7188;56.070;12.698;2023-05-15T07:54:48;21.80;99.90
14210;DHT22;7188;56.070;12.698;2023-05-15T07:57:14;21.50;99.90
14210;DHT22;7188;56.070;12.698;2023-05-15T07:59:39;21.40;99.90
14210;DHT22;7188;56.070;12.698;2023-05-15T08:02:06;21.30;99.90
14210;DHT22;7188;56.070;12.698;2023-05-15T08:04:31;21.30;99.90
14210;DHT22;7188;56.070;12.698;2023-05-15T08:06:58;21.50;99.90
14210;DHT22;7188;56.070;12.698;2023-05-15T08:09:24;21.70;99.90
14210;DHT22;7188;56.070;12.698;2023-05-15T08:11:49;21.50;99.90
14210;DHT22;7188;56.070;12.698;2023-05-15T08:14:15;21.60;99.90
14210;DHT22;7188;56.070;12.698;2023-05-15T08:16:40;21.70;99.90
14210;DHT22;7188;56.070;12.698;2023-05-15T08:19:06;21.90;99.90
14210;DHT22;7188;56.070;12.698;2023-05-15T08:21:32;22.00;99.90
14210;DHT22;7188;56.070;12.698;2023-05-15T08:23:59;21.80;99.90
14210;DHT22;7188;56.070;12.698;2023-05-15T08:26:25;21.40;99.90
14210;DHT22;7188;56.070;12.698;2023-05-15T08:28:51;21.10;99.90
14210;DHT22;7188;56.070;12.698;2023-05-15T08:31:17;20.90;99.90
14210;DHT22;7188;56.070;12.698;2023-05-15T08:33:42;20.70;99.90
14210;DHT22;7188;56.070;12.698;2023-05-15T08:36:08;20.50;99.90
14210;DHT22;7188;56.070;12.698;2023-05-15T08:38:34;20.40;99.90
14210;DHT22;7188;56.070;12.698;2023-05-15T08:41:06;20.20;99.90
14210;DHT22;7188;56.070;12.698;2023-05-15T08:43:35;20.40;99.90
14210;DHT22;7188;56.070;12.698;2023-05-15T08:46:01;20.60;99.90
14210;DHT22;7188;56.070;12.698;2023-05-15T08:48:28;21.00;99.90
14210;DHT22;7188;56.070;12.698;2023-05-15T08:50:56;21.60;99.90
14210;DHT22;7188;56.070;12.698;2023-05-15T08:53:22;21.90;99.90
14210;DHT22;7188;56.070;12.698;2023-05-15T08:55:48;21.90;99.90
14210;DHT22;7188;56.070;12.698;2023-05-15T08:58:15;21.90;99.90
14210;DHT22;7188;56.070;12.698;2023-05-15T09:00:41;21.90;99.90
14210;DHT22;7188;56.070;12.698;2023-05-15T09:03:13;22.00;99.90
14210;DHT22;7188;56.070;12.698;2023-05-15T09:05:40;21.90;99.90
14210;DHT22;7188;56.070;12.698;2023-05-15T09:08:07;22.00;99.90
14210;DHT22;7188;56.070;12.698;2023-05-15T09:10:33;21.90;99.90
14210;DHT22;7188;56.070;12.698;2023-05-15T09:13:01;22.10;99.90
14210;DHT22;7188;56.070;12.698;2023-05-15T09:15:27;21.90;99.90
14210;DHT22;7188;56.070;12.698;2023-05-15T09:17:55;22.10;99.90
14210;DHT22;7188;56.070;12.698;2023-05-15T09:20:29;22.00;99.90
14210;DHT22;7188;56.070;12.698;2023-05-15T09:22:57;22.10;99.90
14210;DHT22;7188;56.070;12.698;2023-05-15T09:25:42;22.30;99.90
14210;DHT22;7188;56.070;12.698;2023-05-15T09:28:23;22.30;99.90
14210;DHT22;7188;56.070;12.698;2023-05-15T09:30:49;22.40;99.90
14210;DHT22;7188;56.070;12.698;2023-05-15T09:33:15;22.70;99.90
14210;DHT22;7188;56.070;12.698;2023-05-15T09:35:41;22.80;99.90
14210;DHT22;7188;56.070;12.698;2023-05-15T09:38:08;22.60;99.90
14210;DHT22;7188;56.070;12.698;2023-05-15T09:40:34;22.40;99.90
14210;DHT22;7188;56.070;12.698;2023-05-15T09:43:00;22.40;99.90
14210;DHT22;7188;56.070;12.698;2023-05-15T09:45:26;22.50;99.90
14210;DHT22;7188;56.070;12.698;2023-05-15T09:48:04;22.60;99.90
14210;DHT22;7188;56.070;12.698;2023-05-15T09:50:37;22.50;99.90
14210;DHT22;7188;56.070;12.698;2023-05-15T09:53:04;22.30;99.90
14210;DHT22;7188;56.070;12.698;2023-05-15T09:55:31;22.40;99.90
14210;DHT22;7188;56.070;12.698;2023-05-15T09:58:27;22.70;99.90
14210;DHT22;7188;56.070;12.698;2023-05-15T10:00:53;23.20;99.90
14210;DHT22;7188;56.070;12.698;2023-05-15T10:03:18;23.40;99.90
14210;DHT22;7188;56.070;12.698;2023-05-15T10:05:45;23.40;99.90
14210;DHT22;7188;56.070;12.698;2023-05-15T10:08:11;23.20;99.90
14210;DHT22;7188;56.070;12.698;2023-05-15T10:10:37;23.10;99.90
14210;DHT22;7188;56.070;12.698;2023-05-15T10:13:02;22.90;99.90
14210;DHT22;7188;56.070;12.698;2023-05-15T10:15:30;23.10;99.90
14210;DHT22;7188;56.070;12.698;2023-05-15T10:17:56;23.20;99.90
14210;DHT22;7188;56.070;12.698;2023-05-15T10:20:24;23.10;99.90
14210;DHT22;7188;56.070;12.698;2023-05-15T10:22:52;22.90;99.90
14210;DHT22;7188;56.070;12.698;2023-05-15T10:26:21;22.90;99.90
14210;DHT22;7188;56.070;12.698;2023-05-15T10:28:29;22.80;99.90
14210;DHT22;7188;56.070;12.698;2023-05-15T10:30:59;22.90;99.90
14210;DHT22;7188;56.070;12.698;2023-05-15T10:33:26;23.20;99.90
14210;DHT22;7188;56.070;12.698;2023-05-15T10:35:55;23.40;99.90
14210;DHT22;7188;56.070;12.698;2023-05-15T10:38:21;23.40;99.90
14210;DHT22;7188;56.070;12.698;2023-05-15T10:40:47;23.20;99.90
14210;DHT22;7188;56.070;12.698;2023-05-15T10:43:14;23.00;99.90
14210;DHT22;7188;56.070;12.698;2023-05-15T10:45:40;23.30;99.90
14210;DHT22;7188;56.070;12.698;2023-05-15T10:48:07;23.60;99.90
14210;DHT22;7188;56.070;12.698;2023-05-15T10:50:32;23.50;99.90
14210;DHT22;7188;56.070;12.698;2023-05-15T10:53:22;23.40;99.90
14210;DHT22;7188;56.070;12.698;2023-05-15T10:55:48;23.50;99.90
14210;DHT22;7188;56.070;12.698;2023-05-15T10:58:14;23.60;99.90
14210;DHT22;7188;56.070;12.698;2023-05-15T11:00:43;23.40;99.90
14210;DHT22;7188;56.070;12.698;2023-05-15T11:03:37;23.50;99.90
14210;DHT22;7188;56.070;12.698;2023-05-15T11:06:10;23.70;99.90
14210;DHT22;7188;56.070;12.698;2023-05-15T11:08:39;23.80;99.90
14210;DHT22;7188;56.070;12.698;2023-05-15T11:11:05;23.90;99.90
14210;DHT22;7188;56.070;12.698;2023-05-15T11:19:22;23.40;99.90
14210;DHT22;7188;56.070;12.698;2023-05-15T11:24:45;22.60;99.90
14210;DHT22;7188;56.070;12.698;2023-05-15T11:27:15;22.50;99.90
14210;DHT22;7188;56.070;12.698;2023-05-15T11:30:07;22.50;99.90
14210;DHT22;7188;56.070;12.698;2023-05-15T11:35:19;22.00;99.90
14210;DHT22;7188;56.070;12.698;2023-05-15T11:38:29;21.70;99.90
14210;DHT22;7188;56.070;12.698;2023-05-15T11:43:28;21.30;1.00
14210;DHT22;7188;56.070;12.698;2023-05-15T11:46:08;20.80;99.90
14210;DHT22;7188;56.070;12.698;2023-05-15T11:48:39;20.10;1.00
14210;DHT22;7188;56.070;12.698;2023-05-15T11:51:14;19.70;1.00
14210;DHT22;7188;56.070;12.698;2023-05-15T11:53:41;19.50;1.00
14210;DHT22;7188;56.070;12.698;2023-05-15T11:56:18;19.50;1.00
14210;DHT22;7188;56.070;12.698;2023-05-15T11:58:48;19.60;1.00
14210;DHT22;7188;56.070;12.698;2023-05-15T12:01:14;19.50;1.00
14210;DHT22;7188;56.070;12.698;2023-05-15T12:03:40;19.40;1.00
14210;DHT22;7188;56.070;12.698;2023-05-15T12:06:06;19.40;1.00
14210;DHT22;7188;56.070;12.698;2023-05-15T12:08:33;19.60;67.20
14210;DHT22;7188;56.070;12.698;2023-05-15T12:11:00;19.60;99.70
14210;DHT22;7188;56.070;12.698;2023-05-15T12:13:27;19.80;1.00
14210;DHT22;7188;56.070;12.698;2023-05-15T12:15:54;19.70;1.00
14210;DHT22;7188;56.070;12.698;2023-05-15T12:18:19;19.80;1.00
14210;DHT22;7188;56.070;12.698;2023-05-15T12:20:45;19.90;1.00
14210;DHT22;7188;56.070;12.698;2023-05-15T12:23:15;19.90;1.00
14210;DHT22;7188;56.070;12.698;2023-05-15T12:25:43;19.70;1.00
14210;DHT22;7188;56.070;12.698;2023-05-15T12:28:11;19.70;1.00
14210;DHT22;7188;56.070;12.698;2023-05-15T12:30:37;19.80;1.00
14210;DHT22;7188;56.070;12.698;2023-05-15T12:33:08;19.80;1.00
14210;DHT22;7188;56.070;12.698;2023-05-15T12:35:36;19.90;1.00
14210;DHT22;7188;56.070;12.698;2023-05-15T12:38:06;19.80;1.00
14210;DHT22;7188;56.070;12.698;2023-05-15T12:40:35;19.80;1.00
14210;DHT22;7188;56.070;12.698;2023-05-15T12:43:08;19.60;1.00
14210;DHT22;7188;56.070;12.698;2023-05-15T12:45:37;19.60;1.00
14210;DHT22;7188;56.070;12.698;2023-05-15T12:48:03;19.40;1.00
14210;DHT22;7188;56.070;12.698;2023-05-15T12:50:33;19.30;1.00
14210;DHT22;7188;56.070;12.698;2023-05-15T12:53:01;19.40;1.00
14210;DHT22;7188;56.070;12.698;2023-05-15T12:55:29;19.50;1.00
14210;DHT22;7188;56.070;12.698;2023-05-15T12:58:00;19.70;1.00
14210;DHT22;7188;56.070;12.698;2023-05-15T13:00:33;20.00;1.00
14210;DHT22;7188;56.070;12.698;2023-05-15T13:03:00;20.20;1.00
14210;DHT22;7188;56.070;12.698;2023-05-15T13:05:30;20.30;99.90
14210;DHT22;7188;56.070;12.698;2023-05-15T13:08:02;20.50;1.00
14210;DHT22;7188;56.070;12.698;2023-05-15T13:10:32;20.80;99.90
14210;DHT22;7188;56.070;12.698;2023-05-15T13:12:58;21.10;99.90
14210;DHT22;7188;56.070;12.698;2023-05-15T13:15:31;21.00;99.90
14210;DHT22;7188;56.070;12.698;2023-05-15T13:18:03;21.10;99.90
14210;DHT22;7188;56.070;12.698;2023-05-15T13:20:36;21.20;99.90
14210;DHT22;7188;56.070;12.698;2023-05-15T13:23:02;21.50;99.90
14210;DHT22;7188;56.070;12.698;2023-05-15T13:25:28;21.60;99.90
14210;DHT22;7188;56.070;12.698;2023-05-15T13:27:57;21.60;99.90
14210;DHT22;7188;56.070;12.698;2023-05-15T13:30:24;21.70;99.90
14210;DHT22;7188;56.070;12.698;2023-05-15T13:32:50;21.70;99.90
14210;DHT22;7188;56.070;12.698;2023-05-15T13:35:16;21.60;99.90
14210;DHT22;7188;56.070;12.698;2023-05-15T13:37:45;21.70;99.90
14210;DHT22;7188;56.070;12.698;2023-05-15T13:40:12;21.70;99.90
14210;DHT22;7188;56.070;12.698;2023-05-15T13:42:39;21.70;99.90
14210;DHT22;7188;56.070;12.698;2023-05-15T13:45:12;21.70;99.90
14210;DHT22;7188;56.070;12.698;2023-05-15T13:47:38;21.50;99.90
14210;DHT22;7188;56.070;12.698;2023-05-15T13:50:06;21.30;99.90
14210;DHT22;7188;56.070;12.698;2023-05-15T13:52:32;21.30;99.90
14210;DHT22;7188;56.070;12.698;2023-05-15T13:54:58;21.20;99.90
14210;DHT22;7188;56.070;12.698;2023-05-15T13:57:23;21.00;99.90
14210;DHT22;7188;56.070;12.698;2023-05-15T13:59:50;21.00;99.90
14210;DHT22;7188;56.070;12.698;2023-05-15T14:02:15;20.90;99.90
14210;DHT22;7188;56.070;12.698;2023-05-15T14:04:41;20.80;99.90
14210;DHT22;7188;56.070;12.698;2023-05-15T14:07:06;20.70;99.90
14210;DHT22;7188;56.070;12.698;2023-05-15T14:09:33;20.70;99.90
14210;DHT22;7188;56.070;12.698;2023-05-15T14:11:59;20.80;99.90
14210;DHT22;7188;56.070;12.698;2023-05-15T14:14:25;20.60;99.90
14210;DHT22;7188;56.070;12.698;2023-05-15T14:16:51;20.30;99.90
14210;DHT22;7188;56.070;12.698;2023-05-15T14:19:17;19.80;99.90
14210;DHT22;7188;56.070;12.698;2023-05-15T14:21:42;19.50;99.90
14210;DHT22;7188;56.070;12.698;2023-05-15T14:24:08;19.40;99.90
14210;DHT22;7188;56.070;12.698;2023-05-15T14:26:34;19.50;99.90
14210;DHT22;7188;56.070;12.698;2023-05-15T14:28:59;19.70;99.90
14210;DHT22;7188;56.070;12.698;2023-05-15T14:31:25;20.00;99.90
14210;DHT22;7188;56.070;12.698;2023-05-15T14:33:52;20.30;99.90
14210;DHT22;7188;56.070;12.698;2023-05-15T14:36:17;20.50;99.90
14210;DHT22;7188;56.070;12.698;2023-05-15T14:38:43;20.70;99.90
14210;DHT22;7188;56.070;12.698;2023-05-15T14:41:12;20.70;99.90
14210;DHT22;7188;56.070;12.698;2023-05-15T14:43:38;20.60;99.90
14210;DHT22;7188;56.070;12.698;2023-05-15T14:46:04;20.60;99.90
14210;DHT22;7188;56.070;12.698;2023-05-15T14:48:30;20.50;99.90
14210;DHT22;7188;56.070;12.698;2023-05-15T14:50:56;20.30;99.90
14210;DHT22;7188;56.070;12.698;2023-05-15T14:53:25;20.30;99.90
14210;DHT22;7188;56.070;12.698;2023-05-15T14:55:53;20.10;99.90
14210;DHT22;7188;56.070;12.698;2023-05-15T14:58:19;19.80;99.90
14210;DHT22;7188;56.070;12.698;2023-05-15T15:00:45;19.60;99.90
14210;DHT22;7188;56.070;12.698;2023-05-15T15:03:13;19.40;99.90
14210;DHT22;7188;56.070;12.698;2023-05-15T15:05:39;19.20;1.00
14210;DHT22;7188;56.070;12.698;2023-05-15T15:08:08;19.10;1.00
14210;DHT22;7188;56.070;12.698;2023-05-15T15:10:38;19.00;1.00
14210;DHT22;7188;56.070;12.698;2023-05-15T15:13:06;19.00;1.00
14210;DHT22;7188;56.070;12.698;2023-05-15T15:15:33;18.90;1.00
14210;DHT22;7188;56.070;12.698;2023-05-15T15:18:00;18.90;1.00
14210;DHT22;7188;56.070;12.698;2023-05-15T15:20:27;18.70;1.00
14210;DHT22;7188;56.070;12.698;2023-05-15T15:22:53;18.70;1.00
14210;DHT22;7188;56.070;12.698;2023-05-15T15:25:20;18.60;1.00
14210;DHT22;7188;56.070;12.698;2023-05-15T15:27:46;18.60;1.00
14210;DHT22;7188;56.070;12.698;2023-05-15T15:30:12;18.60;1.00
14210;DHT22;7188;56.070;12.698;2023-05-15T15:32:40;18.60;1.00
14210;DHT22;7188;56.070;12.698;2023-05-15T15:35:06;18.60;1.00
14210;DHT22;7188;56.070;12.698;2023-05-15T15:37:34;18.60;1.00
14210;DHT22;7188;56.070;12.698;2023-05-15T15:40:02;18.60;1.00
14210;DHT22;7188;56.070;12.698;2023-05-15T15:42:30;18.60;1.00
14210;DHT22;7188;56.070;12.698;2023-05-15T15:44:57;18.50;1.00
14210;DHT22;7188;56.070;12.698;2023-05-15T15:47:24;18.50;1.00
14210;DHT22;7188;56.070;12.698;2023-05-15T15:49:50;18.50;1.00
14210;DHT22;7188;56.070;12.698;2023-05-15T15:52:17;18.50;1.00
14210;DHT22;7188;56.070;12.698;2023-05-15T15:54:44;18.40;1.00
14210;DHT22;7188;56.070;12.698;2023-05-15T15:57:18;18.40;1.00
14210;DHT22;7188;56.070;12.698;2023-05-15T15:59:45;18.40;1.00
14210;DHT22;7188;56.070;12.698;2023-05-15T16:02:11;18.50;1.00
14210;DHT22;7188;56.070;12.698;2023-05-15T16:04:37;18.50;1.00
14210;DHT22;7188;56.070;12.698;2023-05-15T16:07:04;18.60;1.00
14210;DHT22;7188;56.070;12.698;2023-05-15T16:09:30;18.60;1.00
14210;DHT22;7188;56.070;12.698;2023-05-15T16:11:56;18.50;1.00
14210;DHT22;7188;56.070;12.698;2023-05-15T16:14:22;18.60;1.00
14210;DHT22;7188;56.070;12.698;2023-05-15T16:16:48;18.60;99.90
14210;DHT22;7188;56.070;12.698;2023-05-15T16:19:15;18.60;99.90